Airfield :
LOGIN :

Register | Disclaimer

   EN    FR    IT 

 










Legend :    VFR   Marginal VFR   IFR   Intensive IFR   Very Intensive IFR
Visi :
Ceiling :
>= 8 km
>= 3000ft
5 to 8 km
1000 to 3000 ft
1500m to 5 km
500 to 1000 ft
800 to 1500m
200 to 500 ft
< 800m
< 200 ft
Symbols :   Thunderstorms  Fog  Heavy snow  Heavy precipitations  Wind > 20 kt
SIGMETs :     Misc.  Thunderstorms  Icing  Turbulence  Mountain Waves  Volcanic Ashes







- Airport Elevation : 416 ft
- IATA code : OVD


LEAS - Asturias

CURRENT METAR :
  • 191630Z 09010KT 020V120 9999 FEW020 21/16 Q1017 NOSIG

EXPIRED METARs :
  • 191600Z 09010KT 060V120 9999 FEW020 21/16 Q1017 NOSIG
  • 191530Z 09009KT 040V150 9999 FEW020 22/16 Q1017 NOSIG
  • 191500Z 07008KT 010V110 9999 FEW020 22/16 Q1017 NOSIG
  • 191430Z 06006KT 350V110 9999 FEW020 22/16 Q1017 NOSIG
  • 191400Z 05006G16KT 330V100 9999 FEW020 21/17 Q1018 NOSIG

TAF TAF LEAS
Valid from the 19 at 15:00 until the 20 at 15:00 UTC


191400Z 1915/2015 08009KT 9999 FEW030 TX24/2012Z TN14/2005Z
PROB40
TEMPO 1915/1918 SCT030TCU
PROB40
TEMPO 2003/2008 3000 BR
BECMG 2010/2014 30010KT
PROB40
TEMPO 2012/2015 3000 BR BKN005 BKN010
No reported NOTAMs for that airfield.



MET'MAP, your aeronautical weather chart ! - Copyright ORBIFLY December 2007 - Disclaimer

ORBIFLY MET'MAP TEAM :

Programming & Development : Alexandra Zaïnal
Concept & Development : Baudouin d'Aumeries
Co-Development & Prog : Marc-Olivier Méhu
Technical & hardware support : Manuel Goepfert

Contact : metmap@orbifly.com




SOURCES & CREDITS :

   NOAA